Time;durP1;ratioP1;P1;durP2;ratioP2;P2;SDS_P1;SDS_P2;PMS_P1;PMS_P2;Temp;Humidity;BMP_temperature;BMP_pressure;BME280_temperature;BME280_humidity;BME280_pressure;Samples;Min_cycle;Max_cycle;Signal;HPM_P1;HPM_P2
2023/01/12 00:02:09;;;;;;;14.55;4.00;;;8.40;99.90;;;;;;7393378;19;20015;-58
2023/01/12 00:04:40;;;;;;;15.23;3.65;;;8.40;99.90;;;;;;7377559;19;20342;-59
2023/01/12 00:07:10;;;;;;;13.38;3.80;;;8.30;99.90;;;;;;7398195;19;20017;-59
2023/01/12 00:09:37;;;;;;;13.63;3.53;;;8.30;99.90;;;;;;7396263;19;20481;-59
2023/01/12 00:12:05;;;;;;;15.00;4.40;;;8.30;99.90;;;;;;7393502;19;20348;-59
2023/01/12 00:14:36;;;;;;;15.40;4.80;;;8.30;99.90;;;;;;7397929;19;20533;-58
2023/01/12 00:17:05;;;;;;;22.38;4.40;;;8.30;99.90;;;;;;7396786;19;20011;-59
2023/01/12 00:19:31;;;;;;;18.58;5.07;;;8.30;99.90;;;;;;7401297;19;20014;-58
2023/01/12 00:24:46;;;;;;;14.57;4.60;;;8.30;99.90;;;;;;7399197;19;20017;-59
2023/01/12 00:27:15;;;;;;;22.02;5.82;;;8.30;99.90;;;;;;7400949;19;20017;-58
2023/01/12 00:29:42;;;;;;;17.63;4.07;;;8.30;99.90;;;;;;7399521;19;20021;-58
2023/01/12 00:32:17;;;;;;;19.95;5.00;;;8.30;99.90;;;;;;7401892;19;20090;-59
2023/01/12 00:34:52;;;;;;;26.13;5.80;;;8.20;99.90;;;;;;7404516;19;20473;-59
2023/01/12 00:37:18;;;;;;;15.02;4.57;;;8.20;99.90;;;;;;7402635;19;20365;-59
2023/01/12 00:39:45;;;;;;;22.83;4.80;;;8.20;99.90;;;;;;7402736;19;20011;-59
2023/01/12 00:47:57;;;;;;;26.17;5.40;;;8.20;99.90;;;;;;7404653;19;20014;-59
2023/01/12 00:50:31;;;;;;;18.75;4.40;;;8.30;99.90;;;;;;7398876;19;20391;-59
2023/01/12 00:52:59;;;;;;;16.05;4.20;;;8.30;99.90;;;;;;7401544;19;20015;-59
2023/01/12 00:55:25;;;;;;;25.02;4.93;;;8.30;99.90;;;;;;7400758;19;20347;-59
2023/01/12 00:57:52;;;;;;;18.88;3.95;;;8.40;99.90;;;;;;7391944;19;20485;-61
2023/01/12 01:00:18;;;;;;;19.15;4.22;;;8.40;99.90;;;;;;7389762;19;20435;-59
2023/01/12 01:02:51;;;;;;;16.55;4.55;;;8.40;99.90;;;;;;7404607;19;20038;-58
2023/01/12 01:05:17;;;;;;;22.45;4.15;;;8.40;99.90;;;;;;7397803;19;20011;-59
2023/01/12 01:07:45;;;;;;;19.42;5.10;;;8.40;99.90;;;;;;7402279;19;20037;-58
2023/01/12 01:10:30;;;;;;;20.13;4.45;;;8.40;99.90;;;;;;7400006;19;20561;-59
2023/01/12 01:13:17;;;;;;;19.33;4.25;;;8.40;99.90;;;;;;7402608;19;20074;-59
2023/01/12 01:15:44;;;;;;;26.83;4.72;;;8.50;99.90;;;;;;7401502;19;20041;-59
2023/01/12 01:18:10;;;;;;;17.75;4.32;;;8.50;99.90;;;;;;7398244;19;20572;-59
2023/01/12 01:21:02;;;;;;;13.23;3.70;;;8.50;99.90;;;;;;7400737;19;20027;-59
2023/01/12 01:23:35;;;;;;;16.17;3.60;;;8.50;99.90;;;;;;7398034;19;20027;-59
2023/01/12 01:26:21;;;;;;;17.98;4.53;;;8.50;99.90;;;;;;7399647;19;20017;-59
2023/01/12 01:28:48;;;;;;;16.42;4.05;;;8.60;99.90;;;;;;7400408;19;20354;-58
2023/01/12 01:31:21;;;;;;;17.63;4.43;;;8.60;99.90;;;;;;7401322;19;20010;-59
2023/01/12 01:34:02;;;;;;;25.25;4.95;;;8.50;99.90;;;;;;7402536;19;20473;-59
2023/01/12 01:36:28;;;;;;;20.73;5.33;;;8.50;99.90;;;;;;7401984;19;20014;-59
2023/01/12 01:38:54;;;;;;;22.65;4.75;;;8.60;99.90;;;;;;7403167;19;20010;-59
2023/01/12 01:41:28;;;;;;;18.80;4.60;;;8.60;99.90;;;;;;7397354;19;20017;-59
2023/01/12 01:43:56;;;;;;;22.10;4.40;;;8.60;99.90;;;;;;7402667;19;20010;-59
2023/01/12 01:46:40;;;;;;;16.63;3.92;;;8.60;99.90;;;;;;7397150;19;20025;-59
2023/01/12 01:49:25;;;;;;;23.92;5.20;;;8.60;99.90;;;;;;7397311;19;20419;-59
2023/01/12 01:52:23;;;;;;;15.90;4.50;;;8.60;99.90;;;;;;7401961;19;20010;-59
2023/01/12 01:54:57;;;;;;;19.33;4.45;;;8.60;99.90;;;;;;7398831;19;20017;-59
2023/01/12 01:57:57;;;;;;;26.65;5.35;;;8.60;99.90;;;;;;7397075;19;20469;-59
2023/01/12 02:00:24;;;;;;;19.15;4.95;;;8.60;99.90;;;;;;7401364;19;20069;-59
2023/01/12 02:02:51;;;;;;;19.42;4.25;;;8.60;99.90;;;;;;7385793;19;20014;-62
2023/01/12 02:05:21;;;;;;;21.63;4.68;;;8.60;99.90;;;;;;7372277;19;20014;-62
2023/01/12 02:07:49;;;;;;;19.60;5.18;;;8.70;99.90;;;;;;7376696;19;20025;-61
2023/01/12 02:10:16;;;;;;;17.90;4.00;;;8.70;99.90;;;;;;7369364;19;20018;-61
2023/01/12 02:18:42;;;;;;;16.33;4.45;;;8.50;99.90;;;;;;7372425;19;20034;-62
2023/01/12 02:21:27;;;;;;;17.45;4.40;;;8.60;99.90;;;;;;7367952;19;20070;-61
2023/01/12 02:24:05;;;;;;;20.33;5.15;;;8.60;99.90;;;;;;7368950;19;20023;-61
2023/01/12 02:26:55;;;;;;;19.20;5.53;;;8.60;99.90;;;;;;7374389;19;20547;-61
2023/01/12 02:29:33;;;;;;;21.60;4.60;;;8.60;99.90;;;;;;7369176;19;20090;-61
2023/01/12 02:32:25;;;;;;;23.10;5.20;;;8.70;99.90;;;;;;7371293;19;20520;-62
2023/01/12 02:34:59;;;;;;;16.13;4.28;;;8.70;99.90;;;;;;7371729;19;20089;-61
2023/01/12 02:37:37;;;;;;;27.98;5.53;;;8.60;99.90;;;;;;7373368;19;20033;-61
2023/01/12 02:40:33;;;;;;;22.75;5.43;;;8.60;99.90;;;;;;7382385;19;20010;-59
2023/01/12 02:43:27;;;;;;;20.60;5.10;;;8.70;99.90;;;;;;7394165;19;20078;-61
2023/01/12 02:46:11;;;;;;;21.55;5.82;;;8.60;99.90;;;;;;7398619;19;20007;-59
2023/01/12 02:49:12;;;;;;;23.50;5.25;;;8.60;99.90;;;;;;7396762;19;20037;-59
2023/01/12 02:51:56;;;;;;;15.48;4.80;;;8.60;99.90;;;;;;7375526;19;20021;-61
2023/01/12 02:54:25;;;;;;;29.58;6.45;;;8.60;99.90;;;;;;7374829;19;20029;-62
2023/01/12 02:56:59;;;;;;;26.48;7.18;;;8.60;99.90;;;;;;7372011;19;20022;-62
2023/01/12 02:59:29;;;;;;;20.73;4.75;;;8.60;99.90;;;;;;7370266;19;20109;-62
2023/01/12 03:02:18;;;;;;;19.58;5.45;;;8.60;99.90;;;;;;7369300;19;20044;-61
2023/01/12 03:04:44;;;;;;;21.45;5.55;;;8.60;99.90;;;;;;7378260;19;20007;-59
2023/01/12 03:07:13;;;;;;;23.88;5.95;;;8.60;99.90;;;;;;7398395;19;20011;-58
2023/01/12 03:09:55;;;;;;;30.65;6.10;;;8.60;99.90;;;;;;7398026;19;20017;-58
2023/01/12 03:12:35;;;;;;;19.17;6.13;;;8.70;99.90;;;;;;7373509;19;20037;-61
2023/01/12 03:15:05;;;;;;;19.67;5.00;;;8.70;99.90;;;;;;7364273;19;20278;-62
2023/01/12 03:17:41;;;;;;;23.10;6.18;;;8.70;99.90;;;;;;7371669;19;20881;-62
2023/01/12 03:20:23;;;;;;;23.48;6.30;;;8.70;99.90;;;;;;7372446;19;20038;-62
2023/01/12 03:22:52;;;;;;;20.85;6.43;;;8.70;99.90;;;;;;7377459;19;20494;-58
2023/01/12 03:25:21;;;;;;;18.55;6.47;;;8.70;99.90;;;;;;7388697;19;20018;-61
2023/01/12 03:27:51;;;;;;;21.08;6.97;;;8.80;99.90;;;;;;7376584;19;20515;-62
2023/01/12 03:30:20;;;;;;;21.17;6.32;;;8.80;99.90;;;;;;7364839;19;20018;-62
2023/01/12 03:32:47;;;;;;;19.50;7.00;;;8.80;99.90;;;;;;7373183;19;20740;-61
2023/01/12 03:35:13;;;;;;;18.10;5.70;;;8.80;99.90;;;;;;7380591;19;20021;-59
2023/01/12 03:38:03;;;;;;;17.45;5.65;;;8.80;99.90;;;;;;7385650;19;20311;-62
2023/01/12 03:40:53;;;;;;;17.30;5.95;;;8.70;99.90;;;;;;7384031;19;20018;-59
2023/01/12 03:43:33;;;;;;;14.18;5.20;;;8.80;99.90;;;;;;7393040;19;20080;-58
2023/01/12 03:46:12;;;;;;;11.77;4.70;;;8.80;99.90;;;;;;7396003;19;20023;-61
2023/01/12 03:48:59;;;;;;;14.80;5.18;;;8.80;99.90;;;;;;7370295;19;20022;-61
2023/01/12 03:51:34;;;;;;;13.65;5.65;;;8.80;99.90;;;;;;7386332;19;20015;-59
2023/01/12 03:54:04;;;;;;;13.68;5.20;;;8.80;99.90;;;;;;7386495;19;20019;-61
2023/01/12 03:56:41;;;;;;;13.80;5.32;;;8.80;99.90;;;;;;7383549;19;20019;-59
2023/01/12 03:59:08;;;;;;;13.68;5.25;;;8.80;99.90;;;;;;7403434;19;20078;-58
2023/01/12 04:01:34;;;;;;;18.55;5.78;;;8.70;99.90;;;;;;7394749;19;20702;-61
2023/01/12 04:04:01;;;;;;;12.90;5.15;;;8.70;99.90;;;;;;7376302;19;20018;-60
2023/01/12 04:06:27;;;;;;;15.60;6.47;;;8.70;99.90;;;;;;7375908;19;20028;-61
2023/01/12 04:08:53;;;;;;;13.32;6.80;;;8.70;99.90;;;;;;7377592;19;20018;-61
2023/01/12 04:14:04;;;;;;;13.85;5.65;;;8.70;99.90;;;;;;7376233;19;20050;-61
2023/01/12 04:16:30;;;;;;;14.95;5.93;;;8.70;99.90;;;;;;7376272;19;20018;-61
2023/01/12 04:18:56;;;;;;;14.48;6.45;;;8.80;99.90;;;;;;7375618;19;20394;-61
2023/01/12 04:24:08;;;;;;;12.38;5.60;;;8.80;99.90;;;;;;7376669;19;20044;-61
2023/01/12 04:26:34;;;;;;;14.43;5.40;;;8.70;99.90;;;;;;7378383;19;20025;-60
2023/01/12 04:29:00;;;;;;;10.95;4.75;;;8.70;99.90;;;;;;7390101;19;20022;-61
2023/01/12 04:31:26;;;;;;;10.07;4.78;;;8.80;99.90;;;;;;7391087;19;20436;-59
2023/01/12 04:33:53;;;;;;;11.88;5.13;;;8.70;99.90;;;;;;7399824;19;20737;-59
2023/01/12 04:36:21;;;;;;;11.95;4.90;;;8.80;99.90;;;;;;7398541;19;20680;-59
2023/01/12 04:38:47;;;;;;;11.95;4.45;;;8.80;99.90;;;;;;7398743;19;20029;-59
2023/01/12 04:41:13;;;;;;;12.35;5.32;;;8.70;99.90;;;;;;7398136;19;20037;-59
2023/01/12 04:43:40;;;;;;;10.07;6.40;;;8.70;99.90;;;;;;7396938;19;20021;-59
2023/01/12 04:46:08;;;;;;;11.05;4.68;;;8.70;99.90;;;;;;7371632;19;20528;-61
2023/01/12 04:48:35;;;;;;;11.70;4.93;;;8.70;99.90;;;;;;7375059;19;20020;-61
2023/01/12 04:51:01;;;;;;;9.38;4.28;;;8.70;99.90;;;;;;7377453;19;20025;-61
2023/01/12 04:53:28;;;;;;;9.80;4.03;;;8.70;99.90;;;;;;7375058;19;20014;-61
2023/01/12 04:55:56;;;;;;;9.15;3.25;;;8.60;99.90;;;;;;7387550;19;20014;-61
2023/01/12 04:58:22;;;;;;;12.35;4.15;;;8.60;99.90;;;;;;7373330;19;20551;-63
2023/01/12 05:00:48;;;;;;;10.57;3.10;;;8.60;99.90;;;;;;7377989;19;20504;-62
2023/01/12 05:03:17;;;;;;;7.30;2.97;;;8.60;99.90;;;;;;7377707;19;20019;-61
2023/01/12 05:05:43;;;;;;;14.27;3.28;;;8.50;99.90;;;;;;7373640;19;20374;-61
2023/01/12 05:11:01;;;;;;;10.23;3.22;;;8.50;99.90;;;;;;7399577;19;20026;-60
2023/01/12 05:13:29;;;;;;;10.90;3.30;;;8.50;99.90;;;;;;7399328;19;20030;-60
2023/01/12 05:15:56;;;;;;;5.78;2.58;;;8.40;99.90;;;;;;7395643;19;20017;-59
2023/01/12 05:18:26;;;;;;;6.85;2.33;;;8.40;99.90;;;;;;7398816;19;20477;-61
2023/01/12 05:20:52;;;;;;;5.32;2.22;;;8.40;99.90;;;;;;7382031;19;20011;-62
2023/01/12 05:23:18;;;;;;;5.00;2.08;;;8.40;99.90;;;;;;7375998;19;20022;-62
2023/01/12 05:25:45;;;;;;;5.93;2.15;;;8.40;99.90;;;;;;7375117;19;20027;-62
2023/01/12 05:28:11;;;;;;;5.70;1.83;;;8.40;99.90;;;;;;7372497;19;20358;-62
2023/01/12 05:30:37;;;;;;;6.82;2.80;;;8.40;99.90;;;;;;7364541;19;20379;-62
2023/01/12 05:33:03;;;;;;;7.15;2.38;;;8.30;99.90;;;;;;7372924;19;20029;-62
2023/01/12 05:35:29;;;;;;;8.00;2.40;;;8.30;99.90;;;;;;7370910;19;20010;-62
2023/01/12 05:37:56;;;;;;;6.72;2.17;;;8.30;99.90;;;;;;7373499;19;20595;-63
2023/01/12 05:40:23;;;;;;;6.55;2.05;;;8.30;99.90;;;;;;7367732;19;20035;-62
2023/01/12 05:45:35;;;;;;;5.13;1.90;;;8.30;99.90;;;;;;7368239;19;20090;-62
2023/01/12 05:48:01;;;;;;;4.88;1.92;;;8.40;99.90;;;;;;7369313;19;20026;-63
2023/01/12 05:50:28;;;;;;;7.85;2.55;;;8.40;99.90;;;;;;7367451;19;20018;-62
2023/01/12 05:53:08;;;;;;;5.70;1.92;;;8.40;99.90;;;;;;7370905;19;20014;-62
2023/01/12 05:55:36;;;;;;;5.57;2.03;;;8.40;99.90;;;;;;7369341;19;20061;-62
2023/01/12 05:58:03;;;;;;;9.48;2.40;;;8.50;99.90;;;;;;7362052;19;20026;-62
2023/01/12 06:00:29;;;;;;;8.40;2.22;;;8.50;99.90;;;;;;7362963;19;20047;-63
2023/01/12 06:02:56;;;;;;;5.35;1.90;;;8.50;99.90;;;;;;7364159;19;20544;-62
2023/01/12 06:05:22;;;;;;;5.60;2.25;;;8.50;99.90;;;;;;7363614;19;20647;-62
2023/01/12 06:07:48;;;;;;;7.43;2.22;;;8.60;99.90;;;;;;7361452;19;20045;-63
2023/01/12 06:10:15;;;;;;;6.28;2.55;;;8.60;99.90;;;;;;7364243;19;20341;-63
2023/01/12 06:15:26;;;;;;;5.63;2.03;;;8.60;99.90;;;;;;7363049;19;20210;-63
2023/01/12 06:17:52;;;;;;;8.65;3.22;;;8.70;99.90;;;;;;7364115;19;20019;-63
2023/01/12 06:20:19;;;;;;;10.60;2.72;;;8.70;99.90;;;;;;7364280;19;20612;-63
2023/01/12 06:22:45;;;;;;;11.20;3.72;;;8.70;99.90;;;;;;7381838;19;20014;-61
2023/01/12 06:25:11;;;;;;;6.93;2.20;;;8.70;99.90;;;;;;7391033;19;20010;-64
2023/01/12 06:27:38;;;;;;;8.30;2.53;;;8.70;99.90;;;;;;7386810;19;20078;-61
2023/01/12 06:30:06;;;;;;;5.25;2.05;;;8.70;99.90;;;;;;7397645;19;20014;-61
2023/01/12 06:32:32;;;;;;;5.72;2.28;;;8.80;99.90;;;;;;7396820;19;20483;-61
2023/01/12 06:35:07;;;;;;;6.43;2.15;;;8.80;99.90;;;;;;7398608;19;20018;-61
2023/01/12 06:37:33;;;;;;;8.00;2.20;;;8.90;99.90;;;;;;7396824;19;20070;-61
2023/01/12 06:39:59;;;;;;;4.10;1.77;;;8.90;99.90;;;;;;7398481;19;20352;-61
2023/01/12 06:42:28;;;;;;;6.78;1.92;;;8.90;99.90;;;;;;7392176;19;20032;-63
2023/01/12 06:45:00;;;;;;;4.68;1.67;;;9.00;99.90;;;;;;7366617;19;20110;-63
2023/01/12 06:47:32;;;;;;;3.33;1.92;;;9.00;99.90;;;;;;7385469;19;20010;-63
2023/01/12 06:49:59;;;;;;;4.10;1.95;;;9.00;99.90;;;;;;7361721;19;20130;-61
2023/01/12 06:52:28;;;;;;;4.43;2.03;;;9.10;99.90;;;;;;7364044;19;20039;-63
2023/01/12 06:54:55;;;;;;;4.38;2.20;;;9.10;99.90;;;;;;7366135;19;20544;-63
2023/01/12 06:57:21;;;;;;;3.83;2.13;;;9.10;99.90;;;;;;7364729;19;20022;-63
2023/01/12 06:59:48;;;;;;;2.88;1.83;;;9.10;99.90;;;;;;7362406;19;20604;-63
2023/01/12 07:02:24;;;;;;;3.72;1.83;;;9.20;99.90;;;;;;7393148;19;20010;-61
2023/01/12 07:04:58;;;;;;;4.22;1.90;;;9.30;99.90;;;;;;7394192;19;20013;-61
2023/01/12 07:07:24;;;;;;;4.35;2.13;;;9.20;99.90;;;;;;7394921;19;20014;-65
2023/01/12 07:09:50;;;;;;;3.38;2.10;;;9.30;99.90;;;;;;7370651;19;20764;-64
2023/01/12 07:12:16;;;;;;;4.07;2.38;;;9.30;99.90;;;;;;7361043;19;20419;-63
2023/01/12 07:14:42;;;;;;;3.15;2.20;;;9.30;99.90;;;;;;7364775;19;20033;-61
2023/01/12 07:17:09;;;;;;;4.47;2.10;;;9.30;99.90;;;;;;7379717;19;20029;-64
2023/01/12 07:19:35;;;;;;;3.20;1.92;;;9.30;99.90;;;;;;7365294;19;20612;-63
2023/01/12 07:22:01;;;;;;;4.57;2.28;;;9.30;99.90;;;;;;7363157;19;20753;-63
2023/01/12 07:24:27;;;;;;;4.40;2.05;;;9.30;99.90;;;;;;7387120;19;20010;-61
2023/01/12 07:26:56;;;;;;;4.78;2.50;;;9.40;99.90;;;;;;7371265;19;20538;-63
2023/01/12 07:29:24;;;;;;;3.80;2.70;;;9.40;99.90;;;;;;7358290;19;20515;-64
2023/01/12 07:35:45;;;;;;;6.18;2.50;;;9.50;99.90;;;;;;7377269;19;19998;-64
2023/01/12 07:38:11;;;;;;;4.82;3.00;;;9.50;99.90;;;;;;7363941;19;20030;-64
2023/01/12 07:40:37;;;;;;;5.10;3.33;;;9.50;99.90;;;;;;7362228;19;20037;-64
2023/01/12 07:43:06;;;;;;;4.35;3.50;;;9.50;99.90;;;;;;7377944;19;20007;-61
2023/01/12 07:45:46;;;;;;;6.40;3.20;;;9.50;99.90;;;;;;7392181;19;20014;-61
2023/01/12 07:48:12;;;;;;;7.45;3.70;;;9.60;99.90;;;;;;7367394;19;20555;-64
2023/01/12 07:50:38;;;;;;;4.63;3.80;;;9.60;99.90;;;;;;7364341;19;20018;-64
2023/01/12 07:53:05;;;;;;;5.63;4.13;;;9.70;99.90;;;;;;7363455;19;20014;-64
2023/01/12 07:55:31;;;;;;;8.82;4.07;;;9.70;99.90;;;;;;7366181;19;20022;-64
2023/01/12 07:58:02;;;;;;;8.15;3.88;;;9.70;99.90;;;;;;7362239;19;20029;-64
2023/01/12 08:00:30;;;;;;;6.00;4.43;;;9.70;99.90;;;;;;7377990;19;20027;-64
2023/01/12 08:03:07;;;;;;;7.50;4.28;;;9.60;99.90;;;;;;7386931;19;20007;-61
2023/01/12 08:05:35;;;;;;;6.10;4.10;;;9.70;99.90;;;;;;7363115;19;20467;-64
2023/01/12 08:08:08;;;;;;;7.22;4.32;;;9.70;99.90;;;;;;7394351;19;20011;-61
2023/01/12 08:10:35;;;;;;;7.82;4.85;;;9.80;99.90;;;;;;7363783;19;20014;-64
2023/01/12 08:13:01;;;;;;;7.47;4.50;;;9.70;99.90;;;;;;7360893;19;20538;-65
2023/01/12 08:15:50;;;;;;;7.57;4.53;;;9.80;99.90;;;;;;7391722;19;20476;-61
2023/01/12 08:18:30;;;;;;;8.75;4.95;;;9.90;99.90;;;;;;7376259;19;20074;-61
2023/01/12 08:21:01;;;;;;;8.57;5.22;;;9.90;99.90;;;;;;7396167;19;20477;-61
2023/01/12 08:23:52;;;;;;;12.23;5.35;;;9.90;99.90;;;;;;7393514;19;20015;-61
2023/01/12 08:26:23;;;;;;;13.48;4.68;;;9.90;99.90;;;;;;7364920;19;20560;-64
2023/01/12 08:28:55;;;;;;;15.43;5.53;;;10.00;99.90;;;;;;7362955;19;20022;-64
2023/01/12 08:31:23;;;;;;;;;;;10.00;99.90;;;;;;7365095;19;20031;-64
2023/01/12 08:33:52;;;;;;;14.60;5.10;;;10.10;99.90;;;;;;7392912;19;19910;-61
2023/01/12 08:36:19;;;;;;;12.85;6.03;;;10.00;99.90;;;;;;7370074;19;20851;-64
2023/01/12 08:38:45;;;;;;;10.18;5.60;;;10.00;99.90;;;;;;7362130;19;20663;-65
2023/01/12 08:41:32;;;;;;;13.18;5.80;;;10.10;99.90;;;;;;7389915;19;20481;-61
2023/01/12 08:44:10;;;;;;;18.25;6.45;;;10.20;99.90;;;;;;7399443;19;20014;-62
2023/01/12 08:46:54;;;;;;;18.15;6.43;;;10.10;99.90;;;;;;7396093;19;20436;-64
2023/01/12 08:49:24;;;;;;;17.00;6.10;;;10.20;99.90;;;;;;7369740;19;20238;-64
2023/01/12 08:51:51;;;;;;;20.85;6.32;;;10.30;99.90;;;;;;7365665;19;20022;-65
2023/01/12 08:54:19;;;;;;;26.00;6.75;;;10.30;99.90;;;;;;7368201;19;20037;-64
2023/01/12 08:56:46;;;;;;;29.23;6.00;;;10.30;99.90;;;;;;7367335;19;20562;-64
2023/01/12 08:59:12;;;;;;;27.92;5.20;;;10.40;99.90;;;;;;7369059;19;20488;-65
2023/01/12 09:01:41;;;;;;;29.70;5.80;;;10.40;99.90;;;;;;7367370;19;20042;-64
2023/01/12 09:04:08;;;;;;;35.78;6.72;;;10.50;99.90;;;;;;7368466;19;20019;-64
2023/01/12 09:06:36;;;;;;;27.75;5.60;;;10.40;99.90;;;;;;7365329;19;20047;-64
2023/01/12 09:09:07;;;;;;;30.13;5.55;;;10.60;99.90;;;;;;7369362;19;20821;-65
2023/01/12 09:11:34;;;;;;;29.98;6.13;;;10.60;99.90;;;;;;7367923;19;20018;-65
2023/01/12 09:14:00;;;;;;;30.98;6.53;;;10.60;99.90;;;;;;7369324;19;20010;-65
2023/01/12 09:16:29;;;;;;;36.05;6.25;;;10.60;99.90;;;;;;7369063;19;20516;-65
2023/01/12 09:18:55;;;;;;;32.92;5.57;;;10.60;99.90;;;;;;7369154;19;20034;-65
2023/01/12 09:21:24;;;;;;;37.20;5.55;;;10.70;99.90;;;;;;7368205;19;20010;-65
2023/01/12 09:23:53;;;;;;;25.65;4.82;;;10.70;99.90;;;;;;7367878;19;20022;-65
2023/01/12 09:26:27;;;;;;;29.65;5.75;;;10.80;99.90;;;;;;7368464;19;20022;-65
2023/01/12 09:28:53;;;;;;;32.47;5.82;;;10.70;99.90;;;;;;7370269;19;20094;-64
2023/01/12 09:31:21;;;;;;;23.23;4.82;;;10.70;99.90;;;;;;7370122;19;20014;-64
2023/01/12 09:33:48;;;;;;;24.48;4.72;;;10.80;99.90;;;;;;7367767;19;20021;-64
2023/01/12 09:36:26;;;;;;;24.15;4.50;;;10.80;99.90;;;;;;7369166;19;20462;-65
2023/01/12 09:38:53;;;;;;;21.95;4.32;;;10.80;99.90;;;;;;7370048;19;20831;-65
2023/01/12 09:47:27;;;;;;;25.40;5.68;;;10.90;99.90;;;;;;7365465;19;20478;-65
2023/01/12 09:50:10;;;;;;;21.77;4.53;;;10.80;99.90;;;;;;7368670;19;20021;-65
2023/01/12 09:52:44;;;;;;;29.42;5.80;;;10.90;99.90;;;;;;7366278;19;20021;-64
2023/01/12 09:55:20;;;;;;;22.77;4.95;;;10.90;99.90;;;;;;7370207;19;20524;-64
2023/01/12 09:57:53;;;;;;;25.42;4.88;;;10.90;99.90;;;;;;7368350;19;20367;-65
2023/01/12 10:00:20;;;;;;;24.95;6.43;;;10.90;99.90;;;;;;7365489;19;20033;-65
2023/01/12 10:03:03;;;;;;;22.33;5.25;;;11.00;99.90;;;;;;7364372;19;20018;-65
2023/01/12 10:05:42;;;;;;;25.52;5.22;;;10.90;99.90;;;;;;7360509;19;20022;-65
2023/01/12 10:08:27;;;;;;;22.23;4.60;;;10.90;99.90;;;;;;7365747;19;20375;-65
2023/01/12 10:11:07;;;;;;;24.98;5.57;;;10.90;99.90;;;;;;7365897;19;20362;-65
2023/01/12 10:14:06;;;;;;;18.85;4.78;;;11.00;99.90;;;;;;7361926;19;20014;-66
2023/01/12 10:16:59;;;;;;;24.25;5.13;;;11.00;99.90;;;;;;7366809;19;20037;-65
2023/01/12 10:19:50;;;;;;;22.65;4.43;;;11.00;99.90;;;;;;7365340;19;20023;-64
2023/01/12 10:22:38;;;;;;;23.75;4.55;;;11.10;99.90;;;;;;7365965;19;20022;-65
2023/01/12 10:25:26;;;;;;;20.58;4.65;;;11.20;99.90;;;;;;7363444;19;20010;-65
2023/01/12 10:27:56;;;;;;;18.38;4.60;;;11.30;99.90;;;;;;7368758;19;20021;-65
2023/01/12 10:30:34;;;;;;;18.33;4.35;;;11.30;99.90;;;;;;7366298;19;20033;-65
2023/01/12 10:33:20;;;;;;;20.15;3.88;;;11.20;99.90;;;;;;7365782;19;20022;-65
2023/01/12 10:36:03;;;;;;;18.75;4.22;;;11.20;99.90;;;;;;7364551;19;20006;-64
2023/01/12 10:38:33;;;;;;;14.65;4.00;;;11.20;99.90;;;;;;7362939;19;20035;-64
2023/01/12 10:41:09;;;;;;;19.58;4.47;;;11.30;99.90;;;;;;7363445;19;20573;-65
2023/01/12 10:43:40;;;;;;;14.55;3.05;;;11.20;99.90;;;;;;7364074;19;20041;-64
2023/01/12 10:46:09;;;;;;;15.60;3.60;;;11.30;99.90;;;;;;7363538;19;20029;-65
2023/01/12 10:48:42;;;;;;;20.17;4.15;;;11.20;99.90;;;;;;7360486;19;20006;-64
2023/01/12 10:51:36;;;;;;;20.85;4.25;;;11.20;99.90;;;;;;7374735;19;20365;-64
2023/01/12 10:54:17;;;;;;;22.30;4.80;;;11.20;99.90;;;;;;7381359;19;20014;-62
2023/01/12 10:59:58;;;;;;;20.88;4.35;;;11.20;99.90;;;;;;7398452;19;20010;-62
2023/01/12 11:02:27;;;;;;;19.05;3.63;;;11.20;99.90;;;;;;7390313;19;20031;-65
2023/01/12 11:04:59;;;;;;;21.25;4.75;;;11.20;99.90;;;;;;7384079;19;20071;-62
2023/01/12 11:07:49;;;;;;;21.13;3.85;;;11.10;99.90;;;;;;7397541;19;20010;-62
2023/01/12 11:10:28;;;;;;;20.15;4.65;;;11.20;99.90;;;;;;7380721;19;20034;-62
2023/01/12 11:13:26;;;;;;;21.73;4.97;;;11.20;99.90;;;;;;7395408;19;20010;-62
2023/01/12 11:16:16;;;;;;;19.40;4.65;;;11.20;99.90;;;;;;7397148;19;20039;-62
2023/01/12 11:19:11;;;;;;;21.92;4.88;;;11.10;99.90;;;;;;7377937;19;20038;-63
2023/01/12 11:22:02;;;;;;;24.02;5.32;;;11.10;99.90;;;;;;7395159;19;20014;-62
2023/01/12 11:24:48;;;;;;;22.02;4.82;;;11.20;99.90;;;;;;7392315;19;20017;-64
2023/01/12 11:27:35;;;;;;;23.70;4.05;;;11.20;99.90;;;;;;7363982;19;20346;-65
2023/01/12 11:30:04;;;;;;;23.63;4.38;;;11.20;99.90;;;;;;7364974;19;20524;-65
2023/01/12 11:33:07;;;;;;;22.55;4.25;;;11.20;99.90;;;;;;7369448;19;20014;-62
2023/01/12 11:35:51;;;;;;;24.45;4.60;;;11.20;99.90;;;;;;7398149;19;20477;-62
2023/01/12 11:38:39;;;;;;;20.05;3.75;;;11.30;99.90;;;;;;7373848;19;20023;-65
2023/01/12 11:41:18;;;;;;;25.27;4.70;;;11.30;99.90;;;;;;7376497;19;20014;-65
2023/01/12 11:44:13;;;;;;;20.98;5.53;;;11.30;99.90;;;;;;7373877;19;20043;-65
2023/01/12 11:46:45;;;;;;;18.70;3.88;;;11.30;99.90;;;;;;7395751;19;20007;-62
2023/01/12 11:49:31;;;;;;;17.05;5.25;;;11.30;99.90;;;;;;7394278;19;20034;-62
2023/01/12 11:52:00;;;;;;;26.27;4.88;;;11.30;99.90;;;;;;7397071;19;20021;-62
2023/01/12 11:54:31;;;;;;;24.15;4.50;;;11.30;99.90;;;;;;7397943;19;20010;-62
2023/01/12 11:57:44;;;;;;;21.90;4.30;;;11.30;99.90;;;;;;7393745;19;20010;-62
2023/01/12 12:00:35;;;;;;;;;;;11.30;99.90;;;;;;7393560;19;20038;-61
2023/01/12 12:03:43;;;;;;;18.77;4.22;;;11.30;99.90;;;;;;7396995;19;20314;-62
2023/01/12 12:06:38;;;;;;;21.65;4.78;;;11.30;99.90;;;;;;7394570;19;20400;-62
2023/01/12 12:09:32;;;;;;;16.88;3.80;;;11.30;99.90;;;;;;7394417;19;20044;-61
2023/01/12 12:15:47;;;;;;;17.08;4.47;;;11.30;99.90;;;;;;7400025;19;20461;-61
2023/01/12 12:18:42;;;;;;;18.83;4.50;;;11.30;99.90;;;;;;7403560;19;20018;-62
2023/01/12 12:21:20;;;;;;;19.75;4.00;;;11.40;99.90;;;;;;7404558;19;20011;-61
2023/01/12 12:24:19;;;;;;;17.33;3.88;;;11.30;99.90;;;;;;7405284;19;20439;-62
2023/01/12 12:27:36;;;;;;;20.17;4.70;;;11.30;99.90;;;;;;7403187;19;20017;-62
2023/01/12 12:30:26;;;;;;;24.58;5.38;;;11.30;99.90;;;;;;7401469;19;20034;-62
2023/01/12 12:33:14;;;;;;;23.83;4.75;;;11.30;99.90;;;;;;7400457;19;20362;-62
2023/01/12 12:40:22;;;;;;;25.58;4.75;;;11.20;99.90;;;;;;7401300;19;20029;-61
2023/01/12 12:46:45;;;;;;;31.02;5.47;;;11.20;99.90;;;;;;7399161;19;20493;-62
2023/01/12 12:49:18;;;;;;;24.30;5.50;;;11.20;99.90;;;;;;7379124;19;20498;-62
2023/01/12 12:51:45;;;;;;;29.20;5.28;;;11.20;99.90;;;;;;7368945;19;20860;-65
2023/01/12 12:54:16;;;;;;;26.35;5.00;;;11.20;99.90;;;;;;7398446;19;20011;-64
2023/01/12 12:56:43;;;;;;;26.60;5.30;;;11.20;99.90;;;;;;7373965;19;20022;-65
2023/01/12 12:59:39;;;;;;;25.65;5.53;;;11.30;99.90;;;;;;7380702;19;20026;-64
2023/01/12 13:02:35;;;;;;;23.45;4.95;;;11.30;99.90;;;;;;7398273;19;20018;-62
2023/01/12 13:05:06;;;;;;;25.15;5.13;;;11.30;99.90;;;;;;7394686;19;20039;-64
2023/01/12 13:07:35;;;;;;;;;;;11.30;99.90;;;;;;7365796;19;20834;-65
2023/01/12 13:10:16;;;;;;;20.05;4.18;;;11.40;99.90;;;;;;7371343;19;19928;-65
2023/01/12 13:12:42;;;;;;;25.10;6.03;;;11.40;99.90;;;;;;7368139;19;20019;-64
2023/01/12 13:15:21;;;;;;;21.02;4.63;;;11.40;99.90;;;;;;7364926;19;20022;-65
2023/01/12 13:17:49;;;;;;;21.63;4.85;;;11.40;99.90;;;;;;7370074;19;20010;-65
2023/01/12 13:20:19;;;;;;;21.02;4.22;;;11.40;99.90;;;;;;7367577;19;20036;-65
2023/01/12 13:22:47;;;;;;;18.65;4.53;;;11.40;99.90;;;;;;7365636;19;20014;-65
2023/01/12 13:25:21;;;;;;;21.45;5.75;;;11.40;99.90;;;;;;7363432;19;20377;-64
2023/01/12 13:27:59;;;;;;;20.38;4.55;;;11.50;99.90;;;;;;7365612;19;20030;-64
2023/01/12 13:30:25;;;;;;;24.33;4.50;;;11.50;99.90;;;;;;7365397;19;20557;-64
2023/01/12 13:32:58;;;;;;;21.80;5.05;;;11.40;99.90;;;;;;7366665;19;20021;-64
2023/01/12 13:35:33;;;;;;;20.55;4.88;;;11.40;99.90;;;;;;7364513;19;20022;-64
2023/01/12 13:38:30;;;;;;;24.27;5.28;;;11.40;99.90;;;;;;7363731;19;20118;-64
2023/01/12 13:43:13;;;;;;;23.58;5.47;;;11.40;99.90;;;;;;7371562;19;20046;-61
2023/01/12 13:44:32;;;;;;;18.40;3.97;;;11.40;99.90;;;;;;7401424;19;20010;-61
2023/01/12 13:50:41;;;;;;;16.90;4.10;;;11.40;99.90;;;;;;7400861;19;20010;-61
2023/01/12 13:53:23;;;;;;;15.73;4.13;;;11.30;99.90;;;;;;7385484;19;20025;-63
2023/01/12 13:56:18;;;;;;;17.80;3.28;;;11.30;99.90;;;;;;7376649;19;20541;-61
2023/01/12 13:58:56;;;;;;;12.23;3.25;;;11.30;99.90;;;;;;7398678;19;20014;-61
2023/01/12 14:05:51;;;;;;;12.85;3.10;;;11.20;99.90;;;;;;7401905;19;20009;-61
2023/01/12 14:08:57;;;;;;;13.57;3.30;;;11.20;99.90;;;;;;7377810;19;20018;-64
2023/01/12 14:11:29;;;;;;;15.15;3.00;;;11.20;99.90;;;;;;7362470;19;20018;-64
2023/01/12 14:20:01;;;;;;;14.48;3.30;;;11.20;99.90;;;;;;7362915;19;20565;-63
2023/01/12 14:22:27;;;;;;;15.93;3.80;;;11.20;99.90;;;;;;7367103;19;20022;-63
2023/01/12 14:25:16;;;;;;;12.38;2.88;;;11.20;99.90;;;;;;7384284;19;20077;-60
2023/01/12 14:27:55;;;;;;;10.60;2.83;;;11.10;99.90;;;;;;7360584;19;20022;-63
2023/01/12 14:34:50;;;;;;;8.88;3.28;;;11.20;99.90;;;;;;7402497;19;20006;-62